sensor_id;sensor_type;location;lat;lon;timestamp;P1;durP1;ratioP1;P2;durP2;ratioP2
62673;SDS011;48738;47.594;17.638;2022-07-05T00:00:39;5.20;;;4.18;;
62673;SDS011;48738;47.594;17.638;2022-07-05T00:01:25;5.37;;;4.12;;
62673;SDS011;48738;47.594;17.638;2022-07-05T00:02:12;4.47;;;3.97;;
62673;SDS011;48738;47.594;17.638;2022-07-05T00:02:59;5.95;;;4.35;;
62673;SDS011;48738;47.594;17.638;2022-07-05T00:03:47;5.00;;;4.50;;
62673;SDS011;48738;47.594;17.638;2022-07-05T00:04:34;4.53;;;3.80;;
62673;SDS011;48738;47.594;17.638;2022-07-05T00:05:20;4.80;;;4.07;;
62673;SDS011;48738;47.594;17.638;2022-07-05T00:06:07;5.87;;;4.15;;
62673;SDS011;48738;47.594;17.638;2022-07-05T00:06:54;4.80;;;4.30;;
62673;SDS011;48738;47.594;17.638;2022-07-05T00:08:00;6.35;;;3.90;;
62673;SDS011;48738;47.594;17.638;2022-07-05T00:08:47;4.47;;;4.00;;
62673;SDS011;48738;47.594;17.638;2022-07-05T00:09:34;5.10;;;4.53;;
62673;SDS011;48738;47.594;17.638;2022-07-05T00:10:21;5.75;;;4.53;;
62673;SDS011;48738;47.594;17.638;2022-07-05T00:11:08;4.87;;;4.12;;
62673;SDS011;48738;47.594;17.638;2022-07-05T00:11:54;5.65;;;4.10;;
62673;SDS011;48738;47.594;17.638;2022-07-05T00:12:41;4.03;;;3.65;;
62673;SDS011;48738;47.594;17.638;2022-07-05T00:13:28;5.95;;;4.30;;
62673;SDS011;48738;47.594;17.638;2022-07-05T00:14:15;7.15;;;4.72;;
62673;SDS011;48738;47.594;17.638;2022-07-05T00:15:02;5.75;;;4.12;;
62673;SDS011;48738;47.594;17.638;2022-07-05T00:15:49;4.50;;;3.80;;
62673;SDS011;48738;47.594;17.638;2022-07-05T00:16:38;4.72;;;4.22;;
62673;SDS011;48738;47.594;17.638;2022-07-05T00:17:25;4.82;;;4.30;;
62673;SDS011;48738;47.594;17.638;2022-07-05T00:18:12;4.85;;;4.35;;
62673;SDS011;48738;47.594;17.638;2022-07-05T00:18:59;4.80;;;4.18;;
62673;SDS011;48738;47.594;17.638;2022-07-05T00:19:45;4.93;;;4.10;;
62673;SDS011;48738;47.594;17.638;2022-07-05T00:20:32;6.82;;;4.53;;
62673;SDS011;48738;47.594;17.638;2022-07-05T00:21:19;5.00;;;4.40;;
62673;SDS011;48738;47.594;17.638;2022-07-05T00:22:06;5.18;;;4.10;;
62673;SDS011;48738;47.594;17.638;2022-07-05T00:22:53;5.72;;;4.40;;
62673;SDS011;48738;47.594;17.638;2022-07-05T00:23:40;5.60;;;4.28;;
62673;SDS011;48738;47.594;17.638;2022-07-05T00:24:26;6.60;;;4.18;;
62673;SDS011;48738;47.594;17.638;2022-07-05T00:25:13;5.15;;;4.25;;
62673;SDS011;48738;47.594;17.638;2022-07-05T00:26:01;5.25;;;4.35;;
62673;SDS011;48738;47.594;17.638;2022-07-05T00:26:48;6.45;;;4.45;;
62673;SDS011;48738;47.594;17.638;2022-07-05T00:27:34;7.18;;;4.22;;
62673;SDS011;48738;47.594;17.638;2022-07-05T00:28:21;5.10;;;4.50;;
62673;SDS011;48738;47.594;17.638;2022-07-05T00:29:08;5.15;;;4.20;;
62673;SDS011;48738;47.594;17.638;2022-07-05T00:29:55;5.90;;;4.22;;
62673;SDS011;48738;47.594;17.638;2022-07-05T00:30:42;4.70;;;4.25;;
62673;SDS011;48738;47.594;17.638;2022-07-05T00:31:29;4.80;;;4.30;;
62673;SDS011;48738;47.594;17.638;2022-07-05T00:32:16;5.10;;;4.18;;
62673;SDS011;48738;47.594;17.638;2022-07-05T00:33:02;5.18;;;4.68;;
62673;SDS011;48738;47.594;17.638;2022-07-05T00:33:49;4.75;;;4.30;;
62673;SDS011;48738;47.594;17.638;2022-07-05T00:34:36;5.93;;;4.30;;
62673;SDS011;48738;47.594;17.638;2022-07-05T00:35:23;5.07;;;4.40;;
62673;SDS011;48738;47.594;17.638;2022-07-05T00:36:10;4.35;;;3.95;;
62673;SDS011;48738;47.594;17.638;2022-07-05T00:36:56;4.78;;;3.87;;
62673;SDS011;48738;47.594;17.638;2022-07-05T00:37:43;6.75;;;3.97;;
62673;SDS011;48738;47.594;17.638;2022-07-05T00:38:30;4.40;;;4.00;;
62673;SDS011;48738;47.594;17.638;2022-07-05T00:39:17;5.87;;;4.07;;
62673;SDS011;48738;47.594;17.638;2022-07-05T00:40:04;4.80;;;3.72;;
62673;SDS011;48738;47.594;17.638;2022-07-05T00:40:52;5.87;;;4.22;;
62673;SDS011;48738;47.594;17.638;2022-07-05T00:41:39;4.05;;;3.65;;
62673;SDS011;48738;47.594;17.638;2022-07-05T00:42:26;4.07;;;3.67;;
62673;SDS011;48738;47.594;17.638;2022-07-05T00:43:12;4.93;;;4.30;;
62673;SDS011;48738;47.594;17.638;2022-07-05T00:44:00;5.65;;;3.80;;
62673;SDS011;48738;47.594;17.638;2022-07-05T00:44:49;4.20;;;3.80;;
62673;SDS011;48738;47.594;17.638;2022-07-05T00:45:36;7.70;;;3.90;;
62673;SDS011;48738;47.594;17.638;2022-07-05T00:46:23;7.18;;;3.90;;
62673;SDS011;48738;47.594;17.638;2022-07-05T00:47:11;4.20;;;3.80;;
62673;SDS011;48738;47.594;17.638;2022-07-05T00:47:58;5.40;;;4.25;;
62673;SDS011;48738;47.594;17.638;2022-07-05T00:48:45;4.70;;;4.10;;
62673;SDS011;48738;47.594;17.638;2022-07-05T00:49:32;5.82;;;3.85;;
62673;SDS011;48738;47.594;17.638;2022-07-05T00:50:19;4.87;;;3.80;;
62673;SDS011;48738;47.594;17.638;2022-07-05T00:51:06;4.85;;;4.00;;
62673;SDS011;48738;47.594;17.638;2022-07-05T00:51:53;4.50;;;3.90;;
62673;SDS011;48738;47.594;17.638;2022-07-05T00:53:00;5.43;;;3.78;;
62673;SDS011;48738;47.594;17.638;2022-07-05T00:53:48;3.97;;;3.58;;
62673;SDS011;48738;47.594;17.638;2022-07-05T00:54:35;4.40;;;3.83;;
62673;SDS011;48738;47.594;17.638;2022-07-05T00:55:23;4.18;;;3.75;;
62673;SDS011;48738;47.594;17.638;2022-07-05T00:56:10;4.30;;;3.65;;
62673;SDS011;48738;47.594;17.638;2022-07-05T00:56:58;4.97;;;4.12;;
62673;SDS011;48738;47.594;17.638;2022-07-05T00:57:45;7.12;;;4.20;;
62673;SDS011;48738;47.594;17.638;2022-07-05T00:58:32;6.15;;;4.22;;
62673;SDS011;48738;47.594;17.638;2022-07-05T00:59:19;5.00;;;3.97;;
62673;SDS011;48738;47.594;17.638;2022-07-05T01:00:06;5.55;;;4.18;;
62673;SDS011;48738;47.594;17.638;2022-07-05T01:00:53;5.25;;;3.80;;
62673;SDS011;48738;47.594;17.638;2022-07-05T01:01:40;7.03;;;3.67;;
62673;SDS011;48738;47.594;17.638;2022-07-05T01:02:28;4.40;;;4.00;;
62673;SDS011;48738;47.594;17.638;2022-07-05T01:03:14;4.37;;;3.75;;
62673;SDS011;48738;47.594;17.638;2022-07-05T01:04:01;4.50;;;3.85;;
62673;SDS011;48738;47.594;17.638;2022-07-05T01:04:48;5.18;;;4.22;;
62673;SDS011;48738;47.594;17.638;2022-07-05T01:05:36;5.20;;;4.22;;
62673;SDS011;48738;47.594;17.638;2022-07-05T01:06:23;5.87;;;3.95;;
62673;SDS011;48738;47.594;17.638;2022-07-05T01:07:10;7.43;;;4.30;;
62673;SDS011;48738;47.594;17.638;2022-07-05T01:07:56;6.22;;;4.07;;
62673;SDS011;48738;47.594;17.638;2022-07-05T01:08:46;5.12;;;4.55;;
62673;SDS011;48738;47.594;17.638;2022-07-05T01:09:33;4.85;;;3.90;;
62673;SDS011;48738;47.594;17.638;2022-07-05T01:10:20;5.53;;;4.20;;
62673;SDS011;48738;47.594;17.638;2022-07-05T01:11:08;5.43;;;4.00;;
62673;SDS011;48738;47.594;17.638;2022-07-05T01:11:55;4.78;;;4.20;;
62673;SDS011;48738;47.594;17.638;2022-07-05T01:12:42;6.87;;;4.10;;
62673;SDS011;48738;47.594;17.638;2022-07-05T01:13:29;5.50;;;3.92;;
62673;SDS011;48738;47.594;17.638;2022-07-05T01:14:17;4.65;;;3.85;;
62673;SDS011;48738;47.594;17.638;2022-07-05T01:15:06;4.15;;;3.75;;
62673;SDS011;48738;47.594;17.638;2022-07-05T01:15:53;5.32;;;4.10;;
62673;SDS011;48738;47.594;17.638;2022-07-05T01:16:40;5.03;;;4.18;;
62673;SDS011;48738;47.594;17.638;2022-07-05T01:17:27;6.05;;;4.00;;
62673;SDS011;48738;47.594;17.638;2022-07-05T01:18:14;5.37;;;3.78;;
62673;SDS011;48738;47.594;17.638;2022-07-05T01:19:01;4.75;;;4.25;;
62673;SDS011;48738;47.594;17.638;2022-07-05T01:19:48;5.05;;;4.18;;
62673;SDS011;48738;47.594;17.638;2022-07-05T01:20:35;4.78;;;4.28;;
62673;SDS011;48738;47.594;17.638;2022-07-05T01:21:22;5.25;;;4.07;;
62673;SDS011;48738;47.594;17.638;2022-07-05T01:22:12;4.53;;;4.12;;
62673;SDS011;48738;47.594;17.638;2022-07-05T01:23:03;4.57;;;4.18;;
62673;SDS011;48738;47.594;17.638;2022-07-05T01:23:50;5.20;;;4.10;;
62673;SDS011;48738;47.594;17.638;2022-07-05T01:24:37;5.28;;;4.10;;
62673;SDS011;48738;47.594;17.638;2022-07-05T01:25:25;5.20;;;3.87;;
62673;SDS011;48738;47.594;17.638;2022-07-05T01:26:13;4.60;;;3.92;;
62673;SDS011;48738;47.594;17.638;2022-07-05T01:27:00;9.45;;;4.10;;
62673;SDS011;48738;47.594;17.638;2022-07-05T01:27:47;5.30;;;4.07;;
62673;SDS011;48738;47.594;17.638;2022-07-05T01:28:35;6.35;;;4.20;;
62673;SDS011;48738;47.594;17.638;2022-07-05T01:29:21;5.20;;;4.00;;
62673;SDS011;48738;47.594;17.638;2022-07-05T01:30:08;4.55;;;4.00;;
62673;SDS011;48738;47.594;17.638;2022-07-05T01:30:56;5.37;;;4.18;;
62673;SDS011;48738;47.594;17.638;2022-07-05T01:31:43;5.28;;;4.03;;
62673;SDS011;48738;47.594;17.638;2022-07-05T01:32:30;5.10;;;3.90;;
62673;SDS011;48738;47.594;17.638;2022-07-05T01:33:17;4.53;;;4.03;;
62673;SDS011;48738;47.594;17.638;2022-07-05T01:34:04;4.30;;;3.90;;
62673;SDS011;48738;47.594;17.638;2022-07-05T01:34:51;4.93;;;3.87;;
62673;SDS011;48738;47.594;17.638;2022-07-05T01:35:39;5.97;;;4.05;;
62673;SDS011;48738;47.594;17.638;2022-07-05T01:36:26;5.93;;;3.95;;
62673;SDS011;48738;47.594;17.638;2022-07-05T01:37:12;7.28;;;4.20;;
62673;SDS011;48738;47.594;17.638;2022-07-05T01:37:59;5.50;;;4.07;;
62673;SDS011;48738;47.594;17.638;2022-07-05T01:38:46;5.53;;;4.00;;
62673;SDS011;48738;47.594;17.638;2022-07-05T01:39:33;4.53;;;3.92;;
62673;SDS011;48738;47.594;17.638;2022-07-05T01:40:20;4.62;;;3.90;;
62673;SDS011;48738;47.594;17.638;2022-07-05T01:41:08;4.53;;;3.75;;
62673;SDS011;48738;47.594;17.638;2022-07-05T01:41:55;5.95;;;4.07;;
62673;SDS011;48738;47.594;17.638;2022-07-05T01:42:42;7.78;;;4.35;;
62673;SDS011;48738;47.594;17.638;2022-07-05T01:43:29;5.40;;;3.70;;
62673;SDS011;48738;47.594;17.638;2022-07-05T01:44:16;5.50;;;3.78;;
62673;SDS011;48738;47.594;17.638;2022-07-05T01:45:03;6.28;;;3.83;;
62673;SDS011;48738;47.594;17.638;2022-07-05T01:45:50;5.05;;;3.72;;
62673;SDS011;48738;47.594;17.638;2022-07-05T01:46:37;5.00;;;3.78;;
62673;SDS011;48738;47.594;17.638;2022-07-05T01:47:26;5.22;;;3.78;;
62673;SDS011;48738;47.594;17.638;2022-07-05T01:48:14;4.78;;;3.53;;
62673;SDS011;48738;47.594;17.638;2022-07-05T01:49:06;7.03;;;3.90;;
62673;SDS011;48738;47.594;17.638;2022-07-05T01:49:57;5.40;;;3.95;;
62673;SDS011;48738;47.594;17.638;2022-07-05T01:51:44;4.35;;;3.62;;
62673;SDS011;48738;47.594;17.638;2022-07-05T01:52:36;7.07;;;3.73;;
62673;SDS011;48738;47.594;17.638;2022-07-05T01:53:26;5.05;;;3.78;;
62673;SDS011;48738;47.594;17.638;2022-07-05T01:54:14;5.62;;;4.20;;
62673;SDS011;48738;47.594;17.638;2022-07-05T01:55:01;5.35;;;3.70;;
62673;SDS011;48738;47.594;17.638;2022-07-05T01:55:48;4.78;;;4.05;;
62673;SDS011;48738;47.594;17.638;2022-07-05T01:56:36;4.45;;;3.85;;
62673;SDS011;48738;47.594;17.638;2022-07-05T01:57:24;6.87;;;4.40;;
62673;SDS011;48738;47.594;17.638;2022-07-05T01:58:11;7.10;;;4.37;;
62673;SDS011;48738;47.594;17.638;2022-07-05T01:58:57;8.30;;;4.12;;
62673;SDS011;48738;47.594;17.638;2022-07-05T01:59:45;10.23;;;4.32;;
62673;SDS011;48738;47.594;17.638;2022-07-05T02:00:40;6.80;;;4.15;;
62673;SDS011;48738;47.594;17.638;2022-07-05T02:01:35;6.62;;;3.90;;
62673;SDS011;48738;47.594;17.638;2022-07-05T02:02:23;15.35;;;4.47;;
62673;SDS011;48738;47.594;17.638;2022-07-05T02:03:10;6.05;;;3.70;;
62673;SDS011;48738;47.594;17.638;2022-07-05T02:03:58;4.37;;;3.53;;
62673;SDS011;48738;47.594;17.638;2022-07-05T02:04:45;6.62;;;3.90;;
62673;SDS011;48738;47.594;17.638;2022-07-05T02:05:33;5.12;;;3.47;;
62673;SDS011;48738;47.594;17.638;2022-07-05T02:06:20;9.00;;;4.00;;
62673;SDS011;48738;47.594;17.638;2022-07-05T02:07:07;5.45;;;3.80;;
62673;SDS011;48738;47.594;17.638;2022-07-05T02:07:54;5.95;;;3.90;;
62673;SDS011;48738;47.594;17.638;2022-07-05T02:08:41;5.68;;;4.20;;
62673;SDS011;48738;47.594;17.638;2022-07-05T02:09:28;6.53;;;3.90;;
62673;SDS011;48738;47.594;17.638;2022-07-05T02:10:15;5.93;;;4.37;;
62673;SDS011;48738;47.594;17.638;2022-07-05T02:11:02;5.43;;;3.90;;
62673;SDS011;48738;47.594;17.638;2022-07-05T02:11:50;8.30;;;4.30;;
62673;SDS011;48738;47.594;17.638;2022-07-05T02:12:37;6.43;;;3.90;;
62673;SDS011;48738;47.594;17.638;2022-07-05T02:13:24;5.40;;;4.20;;
62673;SDS011;48738;47.594;17.638;2022-07-05T02:14:11;5.75;;;3.78;;
62673;SDS011;48738;47.594;17.638;2022-07-05T02:14:58;5.65;;;3.90;;
62673;SDS011;48738;47.594;17.638;2022-07-05T02:15:45;5.87;;;4.18;;
62673;SDS011;48738;47.594;17.638;2022-07-05T02:16:32;7.22;;;4.37;;
62673;SDS011;48738;47.594;17.638;2022-07-05T02:17:19;7.40;;;3.78;;
62673;SDS011;48738;47.594;17.638;2022-07-05T02:18:06;5.62;;;3.83;;
62673;SDS011;48738;47.594;17.638;2022-07-05T02:18:55;5.00;;;3.87;;
62673;SDS011;48738;47.594;17.638;2022-07-05T02:19:42;7.53;;;4.07;;
62673;SDS011;48738;47.594;17.638;2022-07-05T02:20:29;6.57;;;4.05;;
62673;SDS011;48738;47.594;17.638;2022-07-05T02:21:16;4.55;;;3.80;;
62673;SDS011;48738;47.594;17.638;2022-07-05T02:22:03;4.95;;;3.80;;
62673;SDS011;48738;47.594;17.638;2022-07-05T02:22:50;4.57;;;3.80;;
62673;SDS011;48738;47.594;17.638;2022-07-05T02:23:37;5.47;;;4.07;;
62673;SDS011;48738;47.594;17.638;2022-07-05T02:24:23;4.95;;;3.95;;
62673;SDS011;48738;47.594;17.638;2022-07-05T02:25:11;5.00;;;3.85;;
62673;SDS011;48738;47.594;17.638;2022-07-05T02:25:58;6.07;;;4.30;;
62673;SDS011;48738;47.594;17.638;2022-07-05T02:26:44;5.62;;;3.90;;
62673;SDS011;48738;47.594;17.638;2022-07-05T02:27:31;5.37;;;4.20;;
62673;SDS011;48738;47.594;17.638;2022-07-05T02:28:18;5.15;;;4.15;;
62673;SDS011;48738;47.594;17.638;2022-07-05T02:29:05;5.82;;;4.10;;
62673;SDS011;48738;47.594;17.638;2022-07-05T02:29:52;6.47;;;3.92;;
62673;SDS011;48738;47.594;17.638;2022-07-05T02:30:39;6.60;;;4.30;;
62673;SDS011;48738;47.594;17.638;2022-07-05T02:31:26;5.82;;;4.30;;
62673;SDS011;48738;47.594;17.638;2022-07-05T02:32:12;6.12;;;4.30;;
62673;SDS011;48738;47.594;17.638;2022-07-05T02:32:59;5.20;;;4.03;;
62673;SDS011;48738;47.594;17.638;2022-07-05T02:33:46;4.75;;;4.12;;
62673;SDS011;48738;47.594;17.638;2022-07-05T02:34:33;4.65;;;3.70;;
62673;SDS011;48738;47.594;17.638;2022-07-05T02:35:19;7.90;;;4.10;;
62673;SDS011;48738;47.594;17.638;2022-07-05T02:36:10;5.72;;;3.70;;
62673;SDS011;48738;47.594;17.638;2022-07-05T02:36:58;4.82;;;3.80;;
62673;SDS011;48738;47.594;17.638;2022-07-05T02:37:45;4.90;;;3.67;;
62673;SDS011;48738;47.594;17.638;2022-07-05T02:38:32;6.18;;;4.25;;
62673;SDS011;48738;47.594;17.638;2022-07-05T02:39:18;5.35;;;4.00;;
62673;SDS011;48738;47.594;17.638;2022-07-05T02:40:09;6.40;;;4.07;;
62673;SDS011;48738;47.594;17.638;2022-07-05T02:40:57;4.65;;;3.97;;
62673;SDS011;48738;47.594;17.638;2022-07-05T02:41:44;7.53;;;3.85;;
62673;SDS011;48738;47.594;17.638;2022-07-05T02:42:31;4.50;;;3.97;;
62673;SDS011;48738;47.594;17.638;2022-07-05T02:43:17;4.53;;;4.00;;
62673;SDS011;48738;47.594;17.638;2022-07-05T02:44:04;6.03;;;3.85;;
62673;SDS011;48738;47.594;17.638;2022-07-05T02:44:51;4.60;;;4.10;;
62673;SDS011;48738;47.594;17.638;2022-07-05T02:45:38;4.30;;;3.85;;
62673;SDS011;48738;47.594;17.638;2022-07-05T02:46:25;6.47;;;4.07;;
62673;SDS011;48738;47.594;17.638;2022-07-05T02:47:12;4.32;;;3.87;;
62673;SDS011;48738;47.594;17.638;2022-07-05T02:47:58;5.45;;;4.12;;
62673;SDS011;48738;47.594;17.638;2022-07-05T02:48:45;4.90;;;3.90;;
62673;SDS011;48738;47.594;17.638;2022-07-05T02:49:32;5.72;;;3.90;;
62673;SDS011;48738;47.594;17.638;2022-07-05T02:50:19;6.15;;;4.22;;
62673;SDS011;48738;47.594;17.638;2022-07-05T02:51:06;4.70;;;3.97;;
62673;SDS011;48738;47.594;17.638;2022-07-05T02:51:53;7.03;;;3.83;;
62673;SDS011;48738;47.594;17.638;2022-07-05T02:52:40;5.50;;;3.70;;
62673;SDS011;48738;47.594;17.638;2022-07-05T02:53:27;5.03;;;4.12;;
62673;SDS011;48738;47.594;17.638;2022-07-05T02:54:14;6.00;;;4.10;;
62673;SDS011;48738;47.594;17.638;2022-07-05T02:55:01;4.80;;;3.95;;
62673;SDS011;48738;47.594;17.638;2022-07-05T02:55:51;7.35;;;4.03;;
62673;SDS011;48738;47.594;17.638;2022-07-05T02:56:38;4.68;;;3.83;;
62673;SDS011;48738;47.594;17.638;2022-07-05T02:57:24;5.78;;;4.00;;
62673;SDS011;48738;47.594;17.638;2022-07-05T02:58:11;5.45;;;3.87;;
62673;SDS011;48738;47.594;17.638;2022-07-05T02:58:58;4.40;;;4.00;;
62673;SDS011;48738;47.594;17.638;2022-07-05T02:59:45;4.45;;;3.60;;
62673;SDS011;48738;47.594;17.638;2022-07-05T03:00:32;5.03;;;4.53;;
62673;SDS011;48738;47.594;17.638;2022-07-05T03:01:19;4.50;;;4.05;;
62673;SDS011;48738;47.594;17.638;2022-07-05T03:02:05;4.87;;;3.83;;
62673;SDS011;48738;47.594;17.638;2022-07-05T03:02:52;4.20;;;3.78;;
62673;SDS011;48738;47.594;17.638;2022-07-05T03:03:39;5.97;;;4.32;;
62673;SDS011;48738;47.594;17.638;2022-07-05T03:04:26;4.87;;;4.03;;
62673;SDS011;48738;47.594;17.638;2022-07-05T03:05:13;4.35;;;3.95;;
62673;SDS011;48738;47.594;17.638;2022-07-05T03:06:00;4.60;;;3.83;;
62673;SDS011;48738;47.594;17.638;2022-07-05T03:06:46;5.37;;;3.67;;
62673;SDS011;48738;47.594;17.638;2022-07-05T03:07:37;4.90;;;4.05;;
62673;SDS011;48738;47.594;17.638;2022-07-05T03:08:24;4.53;;;3.80;;
62673;SDS011;48738;47.594;17.638;2022-07-05T03:09:11;4.97;;;4.40;;
62673;SDS011;48738;47.594;17.638;2022-07-05T03:09:57;5.28;;;3.97;;
62673;SDS011;48738;47.594;17.638;2022-07-05T03:10:44;4.85;;;3.90;;
62673;SDS011;48738;47.594;17.638;2022-07-05T03:11:31;4.55;;;3.80;;
62673;SDS011;48738;47.594;17.638;2022-07-05T03:12:18;4.90;;;4.20;;
62673;SDS011;48738;47.594;17.638;2022-07-05T03:13:05;4.62;;;4.22;;
62673;SDS011;48738;47.594;17.638;2022-07-05T03:13:52;5.40;;;4.20;;
62673;SDS011;48738;47.594;17.638;2022-07-05T03:14:39;5.12;;;3.90;;
62673;SDS011;48738;47.594;17.638;2022-07-05T03:15:26;5.43;;;4.53;;
62673;SDS011;48738;47.594;17.638;2022-07-05T03:16:13;6.00;;;4.10;;
62673;SDS011;48738;47.594;17.638;2022-07-05T03:17:00;4.25;;;3.85;;
62673;SDS011;48738;47.594;17.638;2022-07-05T03:17:47;5.53;;;4.15;;
62673;SDS011;48738;47.594;17.638;2022-07-05T03:18:34;5.10;;;4.00;;
62673;SDS011;48738;47.594;17.638;2022-07-05T03:19:20;6.70;;;4.37;;
62673;SDS011;48738;47.594;17.638;2022-07-05T03:20:08;5.15;;;4.45;;
62673;SDS011;48738;47.594;17.638;2022-07-05T03:20:55;6.50;;;4.03;;
62673;SDS011;48738;47.594;17.638;2022-07-05T03:21:42;5.32;;;4.72;;
62673;SDS011;48738;47.594;17.638;2022-07-05T03:22:30;4.43;;;3.97;;
62673;SDS011;48738;47.594;17.638;2022-07-05T03:23:16;9.15;;;4.18;;
62673;SDS011;48738;47.594;17.638;2022-07-05T03:24:03;4.65;;;4.05;;
62673;SDS011;48738;47.594;17.638;2022-07-05T03:24:50;5.30;;;4.05;;
62673;SDS011;48738;47.594;17.638;2022-07-05T03:25:37;5.97;;;4.28;;
62673;SDS011;48738;47.594;17.638;2022-07-05T03:26:24;5.60;;;3.90;;
62673;SDS011;48738;47.594;17.638;2022-07-05T03:27:11;4.75;;;4.10;;
62673;SDS011;48738;47.594;17.638;2022-07-05T03:28:03;5.28;;;4.03;;
62673;SDS011;48738;47.594;17.638;2022-07-05T03:28:50;4.90;;;4.10;;
62673;SDS011;48738;47.594;17.638;2022-07-05T03:29:37;5.30;;;4.30;;
62673;SDS011;48738;47.594;17.638;2022-07-05T03:30:24;4.68;;;4.25;;
62673;SDS011;48738;47.594;17.638;2022-07-05T03:31:11;4.80;;;4.05;;
62673;SDS011;48738;47.594;17.638;2022-07-05T03:31:58;4.30;;;3.90;;
62673;SDS011;48738;47.594;17.638;2022-07-05T03:32:44;4.82;;;4.32;;
62673;SDS011;48738;47.594;17.638;2022-07-05T03:33:31;4.43;;;4.00;;
62673;SDS011;48738;47.594;17.638;2022-07-05T03:34:18;5.32;;;4.28;;
62673;SDS011;48738;47.594;17.638;2022-07-05T03:35:05;4.80;;;4.30;;
62673;SDS011;48738;47.594;17.638;2022-07-05T03:35:52;7.43;;;4.05;;
62673;SDS011;48738;47.594;17.638;2022-07-05T03:36:39;5.03;;;4.00;;
62673;SDS011;48738;47.594;17.638;2022-07-05T03:37:26;5.12;;;4.25;;
62673;SDS011;48738;47.594;17.638;2022-07-05T03:38:13;6.40;;;4.40;;
62673;SDS011;48738;47.594;17.638;2022-07-05T03:39:00;5.70;;;4.50;;
62673;SDS011;48738;47.594;17.638;2022-07-05T03:39:46;4.95;;;4.35;;
62673;SDS011;48738;47.594;17.638;2022-07-05T03:40:33;6.15;;;4.50;;
62673;SDS011;48738;47.594;17.638;2022-07-05T03:41:20;6.03;;;4.85;;
62673;SDS011;48738;47.594;17.638;2022-07-05T03:42:07;5.60;;;4.32;;
62673;SDS011;48738;47.594;17.638;2022-07-05T03:42:54;5.97;;;4.60;;
62673;SDS011;48738;47.594;17.638;2022-07-05T03:43:41;5.22;;;4.40;;
62673;SDS011;48738;47.594;17.638;2022-07-05T03:44:27;8.75;;;4.57;;
62673;SDS011;48738;47.594;17.638;2022-07-05T03:45:14;6.95;;;4.62;;
62673;SDS011;48738;47.594;17.638;2022-07-05T03:46:01;7.30;;;4.55;;
62673;SDS011;48738;47.594;17.638;2022-07-05T03:46:48;5.65;;;4.65;;
62673;SDS011;48738;47.594;17.638;2022-07-05T03:47:35;4.80;;;4.20;;
62673;SDS011;48738;47.594;17.638;2022-07-05T03:48:22;5.40;;;4.55;;
62673;SDS011;48738;47.594;17.638;2022-07-05T03:49:26;6.25;;;4.82;;
62673;SDS011;48738;47.594;17.638;2022-07-05T03:50:13;6.10;;;4.60;;
62673;SDS011;48738;47.594;17.638;2022-07-05T03:51:00;8.60;;;4.57;;
62673;SDS011;48738;47.594;17.638;2022-07-05T03:51:47;6.80;;;4.60;;
62673;SDS011;48738;47.594;17.638;2022-07-05T03:52:34;6.03;;;4.30;;
62673;SDS011;48738;47.594;17.638;2022-07-05T03:53:20;5.47;;;4.68;;
62673;SDS011;48738;47.594;17.638;2022-07-05T03:54:07;6.15;;;4.80;;
62673;SDS011;48738;47.594;17.638;2022-07-05T03:54:54;5.97;;;4.78;;
62673;SDS011;48738;47.594;17.638;2022-07-05T03:55:41;5.55;;;4.82;;
62673;SDS011;48738;47.594;17.638;2022-07-05T03:56:29;7.43;;;4.60;;
62673;SDS011;48738;47.594;17.638;2022-07-05T03:57:16;5.37;;;4.50;;
62673;SDS011;48738;47.594;17.638;2022-07-05T03:58:03;6.18;;;4.70;;
62673;SDS011;48738;47.594;17.638;2022-07-05T03:58:50;4.97;;;4.35;;
62673;SDS011;48738;47.594;17.638;2022-07-05T03:59:36;5.15;;;4.47;;
62673;SDS011;48738;47.594;17.638;2022-07-05T04:00:23;5.62;;;4.50;;
62673;SDS011;48738;47.594;17.638;2022-07-05T04:01:10;6.15;;;4.65;;
62673;SDS011;48738;47.594;17.638;2022-07-05T04:01:57;6.32;;;4.60;;
62673;SDS011;48738;47.594;17.638;2022-07-05T04:02:44;7.18;;;4.80;;
62673;SDS011;48738;47.594;17.638;2022-07-05T04:03:31;5.40;;;4.43;;
62673;SDS011;48738;47.594;17.638;2022-07-05T04:04:25;5.62;;;4.70;;
62673;SDS011;48738;47.594;17.638;2022-07-05T04:05:12;6.85;;;5.10;;
62673;SDS011;48738;47.594;17.638;2022-07-05T04:05:59;7.72;;;4.72;;
62673;SDS011;48738;47.594;17.638;2022-07-05T04:06:45;9.55;;;4.75;;
62673;SDS011;48738;47.594;17.638;2022-07-05T04:07:32;7.03;;;5.22;;
62673;SDS011;48738;47.594;17.638;2022-07-05T04:08:20;5.70;;;4.87;;
62673;SDS011;48738;47.594;17.638;2022-07-05T04:09:08;7.37;;;4.75;;
62673;SDS011;48738;47.594;17.638;2022-07-05T04:09:55;6.70;;;4.75;;
62673;SDS011;48738;47.594;17.638;2022-07-05T04:10:42;5.55;;;4.60;;
62673;SDS011;48738;47.594;17.638;2022-07-05T04:11:29;6.05;;;4.97;;
62673;SDS011;48738;47.594;17.638;2022-07-05T04:12:16;7.68;;;4.97;;
62673;SDS011;48738;47.594;17.638;2022-07-05T04:13:02;5.62;;;4.93;;
62673;SDS011;48738;47.594;17.638;2022-07-05T04:13:49;5.70;;;4.53;;
62673;SDS011;48738;47.594;17.638;2022-07-05T04:14:36;7.80;;;4.75;;
62673;SDS011;48738;47.594;17.638;2022-07-05T04:15:23;5.97;;;4.78;;
62673;SDS011;48738;47.594;17.638;2022-07-05T04:16:10;7.97;;;5.05;;
62673;SDS011;48738;47.594;17.638;2022-07-05T04:16:57;6.62;;;4.93;;
62673;SDS011;48738;47.594;17.638;2022-07-05T04:17:51;8.00;;;4.72;;
62673;SDS011;48738;47.594;17.638;2022-07-05T04:18:38;6.90;;;4.80;;
62673;SDS011;48738;47.594;17.638;2022-07-05T04:19:25;6.90;;;4.80;;
62673;SDS011;48738;47.594;17.638;2022-07-05T04:20:12;9.82;;;4.80;;
62673;SDS011;48738;47.594;17.638;2022-07-05T04:20:59;7.22;;;4.82;;
62673;SDS011;48738;47.594;17.638;2022-07-05T04:21:46;8.48;;;5.37;;
62673;SDS011;48738;47.594;17.638;2022-07-05T04:22:33;5.40;;;4.60;;
62673;SDS011;48738;47.594;17.638;2022-07-05T04:23:20;6.10;;;4.70;;
62673;SDS011;48738;47.594;17.638;2022-07-05T04:24:06;5.95;;;4.68;;
62673;SDS011;48738;47.594;17.638;2022-07-05T04:24:54;5.55;;;4.87;;
62673;SDS011;48738;47.594;17.638;2022-07-05T04:26:02;6.70;;;4.78;;
62673;SDS011;48738;47.594;17.638;2022-07-05T04:26:49;5.55;;;4.93;;
62673;SDS011;48738;47.594;17.638;2022-07-05T04:27:36;6.78;;;4.93;;
62673;SDS011;48738;47.594;17.638;2022-07-05T04:28:24;5.87;;;4.80;;
62673;SDS011;48738;47.594;17.638;2022-07-05T04:29:10;10.35;;;5.30;;
62673;SDS011;48738;47.594;17.638;2022-07-05T04:29:57;6.10;;;4.90;;
62673;SDS011;48738;47.594;17.638;2022-07-05T04:30:44;8.23;;;4.95;;
62673;SDS011;48738;47.594;17.638;2022-07-05T04:31:31;6.40;;;4.75;;
62673;SDS011;48738;47.594;17.638;2022-07-05T04:32:18;6.40;;;4.80;;
62673;SDS011;48738;47.594;17.638;2022-07-05T04:33:04;5.72;;;4.57;;
62673;SDS011;48738;47.594;17.638;2022-07-05T04:33:51;8.23;;;4.68;;
62673;SDS011;48738;47.594;17.638;2022-07-05T04:34:38;6.32;;;5.00;;
62673;SDS011;48738;47.594;17.638;2022-07-05T04:35:25;6.85;;;5.12;;
62673;SDS011;48738;47.594;17.638;2022-07-05T04:36:11;9.15;;;5.03;;
62673;SDS011;48738;47.594;17.638;2022-07-05T04:36:58;8.60;;;5.15;;
62673;SDS011;48738;47.594;17.638;2022-07-05T04:37:45;6.00;;;4.68;;
62673;SDS011;48738;47.594;17.638;2022-07-05T04:38:32;10.80;;;5.50;;
62673;SDS011;48738;47.594;17.638;2022-07-05T04:39:19;8.02;;;5.00;;
62673;SDS011;48738;47.594;17.638;2022-07-05T04:40:07;8.13;;;4.97;;
62673;SDS011;48738;47.594;17.638;2022-07-05T04:40:55;8.70;;;4.85;;
62673;SDS011;48738;47.594;17.638;2022-07-05T04:41:42;7.00;;;5.20;;
62673;SDS011;48738;47.594;17.638;2022-07-05T04:42:29;7.72;;;5.28;;